sensor_id;sensor_type;location;lat;lon;timestamp;pressure;altitude;pressure_sealevel;temperature;humidity
50636;BME280;36598;46.054;11.130;2023-02-22T00:00:10;99525.13;;;10.37;65.07
50636;BME280;36598;46.054;11.130;2023-02-22T00:02:46;99529.00;;;10.50;63.87
50636;BME280;36598;46.054;11.130;2023-02-22T00:05:12;99532.94;;;10.49;63.12
50636;BME280;36598;46.054;11.130;2023-02-22T00:07:41;99526.16;;;10.57;62.91
50636;BME280;36598;46.054;11.130;2023-02-22T00:10:08;99521.47;;;10.54;63.14
50636;BME280;36598;46.054;11.130;2023-02-22T00:12:37;99523.59;;;10.28;63.42
50636;BME280;36598;46.054;11.130;2023-02-22T00:15:03;99518.00;;;10.36;63.42
50636;BME280;36598;46.054;11.130;2023-02-22T00:17:29;99519.94;;;10.46;63.79
50636;BME280;36598;46.054;11.130;2023-02-22T00:19:54;99528.72;;;10.34;64.10
50636;BME280;36598;46.054;11.130;2023-02-22T00:22:20;99514.41;;;10.46;63.21
50636;BME280;36598;46.054;11.130;2023-02-22T00:24:45;99524.72;;;10.38;63.48
50636;BME280;36598;46.054;11.130;2023-02-22T00:27:10;99515.16;;;10.50;63.16
50636;BME280;36598;46.054;11.130;2023-02-22T00:29:35;99516.25;;;10.63;62.39
50636;BME280;36598;46.054;11.130;2023-02-22T00:32:01;99514.06;;;10.37;63.31
50636;BME280;36598;46.054;11.130;2023-02-22T00:34:26;99512.00;;;10.48;62.34
50636;BME280;36598;46.054;11.130;2023-02-22T00:36:51;99513.56;;;10.49;62.83
50636;BME280;36598;46.054;11.130;2023-02-22T00:39:17;99513.63;;;10.42;62.51
50636;BME280;36598;46.054;11.130;2023-02-22T00:41:42;99511.72;;;10.32;62.99
50636;BME280;36598;46.054;11.130;2023-02-22T00:44:07;99508.59;;;10.26;62.39
50636;BME280;36598;46.054;11.130;2023-02-22T00:46:33;99504.72;;;10.09;62.87
50636;BME280;36598;46.054;11.130;2023-02-22T00:48:58;99502.31;;;10.15;63.87
50636;BME280;36598;46.054;11.130;2023-02-22T00:51:24;99502.41;;;9.97;63.88
50636;BME280;36598;46.054;11.130;2023-02-22T00:53:50;99505.19;;;9.93;64.15
50636;BME280;36598;46.054;11.130;2023-02-22T00:56:16;99514.25;;;10.01;64.90
50636;BME280;36598;46.054;11.130;2023-02-22T00:58:41;99504.84;;;9.81;65.35
50636;BME280;36598;46.054;11.130;2023-02-22T01:01:06;99505.19;;;9.97;64.59
50636;BME280;36598;46.054;11.130;2023-02-22T01:03:31;99503.94;;;10.05;64.16
50636;BME280;36598;46.054;11.130;2023-02-22T01:05:57;99500.72;;;10.17;64.36
50636;BME280;36598;46.054;11.130;2023-02-22T01:08:22;99499.53;;;10.15;65.46
50636;BME280;36598;46.054;11.130;2023-02-22T01:10:49;99502.66;;;10.27;65.25
50636;BME280;36598;46.054;11.130;2023-02-22T01:13:16;99499.53;;;10.18;65.05
50636;BME280;36598;46.054;11.130;2023-02-22T01:15:43;99499.13;;;10.20;64.74
50636;BME280;36598;46.054;11.130;2023-02-22T01:18:09;99496.75;;;10.18;64.79
50636;BME280;36598;46.054;11.130;2023-02-22T01:20:36;99503.94;;;10.09;64.04
50636;BME280;36598;46.054;11.130;2023-02-22T01:23:02;99494.44;;;10.10;64.11
50636;BME280;36598;46.054;11.130;2023-02-22T01:25:30;99494.53;;;9.99;64.19
50636;BME280;36598;46.054;11.130;2023-02-22T01:27:56;99492.13;;;10.01;64.41
50636;BME280;36598;46.054;11.130;2023-02-22T01:30:26;99492.31;;;9.69;65.19
50636;BME280;36598;46.054;11.130;2023-02-22T01:32:52;99482.41;;;9.71;64.78
50636;BME280;36598;46.054;11.130;2023-02-22T01:35:18;99481.94;;;9.84;65.03
50636;BME280;36598;46.054;11.130;2023-02-22T01:37:44;99481.06;;;10.04;64.18
50636;BME280;36598;46.054;11.130;2023-02-22T01:40:16;99481.84;;;10.05;63.58
50636;BME280;36598;46.054;11.130;2023-02-22T01:42:41;99483.41;;;10.06;63.83
50636;BME280;36598;46.054;11.130;2023-02-22T01:47:52;99477.03;;;10.16;63.08
50636;BME280;36598;46.054;11.130;2023-02-22T01:50:17;99472.09;;;9.86;63.89
50636;BME280;36598;46.054;11.130;2023-02-22T01:52:42;99469.56;;;10.06;63.22
50636;BME280;36598;46.054;11.130;2023-02-22T01:55:07;99466.81;;;10.06;62.27
50636;BME280;36598;46.054;11.130;2023-02-22T01:57:35;99471.22;;;9.96;62.91
50636;BME280;36598;46.054;11.130;2023-02-22T02:00:06;99469.25;;;9.97;62.68
50636;BME280;36598;46.054;11.130;2023-02-22T02:02:37;99470.00;;;10.04;62.19
50636;BME280;36598;46.054;11.130;2023-02-22T02:05:05;99474.41;;;9.91;62.45
50636;BME280;36598;46.054;11.130;2023-02-22T02:07:32;99465.25;;;10.05;62.04
50636;BME280;36598;46.054;11.130;2023-02-22T02:10:02;99464.53;;;9.94;62.48
50636;BME280;36598;46.054;11.130;2023-02-22T02:12:29;99458.63;;;9.92;62.05
50636;BME280;36598;46.054;11.130;2023-02-22T02:17:38;99463.78;;;9.90;62.50
50636;BME280;36598;46.054;11.130;2023-02-22T02:20:47;99472.00;;;9.97;62.09
50636;BME280;36598;46.054;11.130;2023-02-22T02:23:03;99468.47;;;9.93;62.31
50636;BME280;36598;46.054;11.130;2023-02-22T02:33:41;99469.34;;;9.75;62.16
50636;BME280;36598;46.054;11.130;2023-02-22T02:36:10;99465.19;;;9.42;63.00
50636;BME280;36598;46.054;11.130;2023-02-22T02:38:40;99466.28;;;9.59;63.01
50636;BME280;36598;46.054;11.130;2023-02-22T02:48:27;99454.38;;;9.73;61.89
50636;BME280;36598;46.054;11.130;2023-02-22T02:50:55;99447.31;;;9.68;61.64
50636;BME280;36598;46.054;11.130;2023-02-22T02:53:24;99454.50;;;9.48;62.45
50636;BME280;36598;46.054;11.130;2023-02-22T02:55:51;99446.19;;;9.55;62.97
50636;BME280;36598;46.054;11.130;2023-02-22T02:58:18;99444.94;;;9.67;62.12
50636;BME280;36598;46.054;11.130;2023-02-22T03:00:44;99447.34;;;9.54;62.66
50636;BME280;36598;46.054;11.130;2023-02-22T03:08:44;99445.66;;;9.78;62.19
50636;BME280;36598;46.054;11.130;2023-02-22T03:11:17;99438.19;;;9.71;61.65
50636;BME280;36598;46.054;11.130;2023-02-22T03:13:48;99437.72;;;9.84;61.14
50636;BME280;36598;46.054;11.130;2023-02-22T03:16:35;99445.69;;;9.74;61.44
50636;BME280;36598;46.054;11.130;2023-02-22T03:26:24;99440.97;;;9.71;60.83
50636;BME280;36598;46.054;11.130;2023-02-22T03:28:52;99441.91;;;9.43;61.80
50636;BME280;36598;46.054;11.130;2023-02-22T03:31:23;99440.19;;;9.67;61.29
50636;BME280;36598;46.054;11.130;2023-02-22T03:33:54;99443.31;;;9.76;60.71
50636;BME280;36598;46.054;11.130;2023-02-22T03:36:23;99437.84;;;9.66;60.95
50636;BME280;36598;46.054;11.130;2023-02-22T03:38:49;99438.53;;;9.81;61.34
50636;BME280;36598;46.054;11.130;2023-02-22T03:41:16;99441.00;;;9.68;60.78
50636;BME280;36598;46.054;11.130;2023-02-22T03:43:44;99441.41;;;9.59;61.14
50636;BME280;36598;46.054;11.130;2023-02-22T03:46:10;99438.59;;;9.77;60.96
50636;BME280;36598;46.054;11.130;2023-02-22T03:48:44;99433.78;;;9.85;60.32
50636;BME280;36598;46.054;11.130;2023-02-22T03:51:13;99431.00;;;9.85;60.84
50636;BME280;36598;46.054;11.130;2023-02-22T03:53:39;99433.97;;;9.52;61.60
50636;BME280;36598;46.054;11.130;2023-02-22T03:56:06;99430.50;;;9.31;62.18
50636;BME280;36598;46.054;11.130;2023-02-22T03:58:32;99431.91;;;9.67;60.76
50636;BME280;36598;46.054;11.130;2023-02-22T04:00:59;99425.25;;;9.54;61.66
50636;BME280;36598;46.054;11.130;2023-02-22T04:03:24;99429.53;;;9.69;60.91
50636;BME280;36598;46.054;11.130;2023-02-22T04:05:49;99422.81;;;9.70;61.42
50636;BME280;36598;46.054;11.130;2023-02-22T04:08:15;99426.81;;;9.59;61.11
50636;BME280;36598;46.054;11.130;2023-02-22T04:10:41;99428.78;;;9.58;60.62
50636;BME280;36598;46.054;11.130;2023-02-22T04:13:06;99426.09;;;9.51;60.92
50636;BME280;36598;46.054;11.130;2023-02-22T04:15:31;99420.59;;;9.44;60.49
50636;BME280;36598;46.054;11.130;2023-02-22T04:17:57;99428.13;;;9.29;61.36
50636;BME280;36598;46.054;11.130;2023-02-22T04:20:22;99428.16;;;9.25;61.18
50636;BME280;36598;46.054;11.130;2023-02-22T04:22:52;99431.66;;;9.33;60.96
50636;BME280;36598;46.054;11.130;2023-02-22T04:25:17;99430.84;;;9.43;60.33
50636;BME280;36598;46.054;11.130;2023-02-22T04:27:43;99433.22;;;9.41;60.71
50636;BME280;36598;46.054;11.130;2023-02-22T04:30:08;99428.53;;;9.27;61.17
50636;BME280;36598;46.054;11.130;2023-02-22T04:32:34;99432.06;;;9.35;60.85
50636;BME280;36598;46.054;11.130;2023-02-22T04:34:59;99426.44;;;9.60;60.61
50636;BME280;36598;46.054;11.130;2023-02-22T04:37:24;99429.31;;;9.32;60.78
50636;BME280;36598;46.054;11.130;2023-02-22T04:39:49;99431.59;;;9.51;60.19
50636;BME280;36598;46.054;11.130;2023-02-22T04:42:15;99425.75;;;9.38;60.31
50636;BME280;36598;46.054;11.130;2023-02-22T04:44:40;99433.25;;;9.31;61.27
50636;BME280;36598;46.054;11.130;2023-02-22T04:47:05;99430.06;;;9.39;60.02
50636;BME280;36598;46.054;11.130;2023-02-22T04:49:30;99432.78;;;9.50;59.74
50636;BME280;36598;46.054;11.130;2023-02-22T04:51:56;99441.53;;;9.34;60.71
50636;BME280;36598;46.054;11.130;2023-02-22T04:54:21;99438.69;;;9.52;60.25
50636;BME280;36598;46.054;11.130;2023-02-22T04:56:46;99436.03;;;9.27;60.93
50636;BME280;36598;46.054;11.130;2023-02-22T04:59:12;99447.41;;;9.47;59.39
50636;BME280;36598;46.054;11.130;2023-02-22T05:01:37;99438.63;;;9.63;59.59
50636;BME280;36598;46.054;11.130;2023-02-22T05:04:03;99445.81;;;9.46;59.87
50636;BME280;36598;46.054;11.130;2023-02-22T05:06:28;99443.53;;;9.26;60.49
50636;BME280;36598;46.054;11.130;2023-02-22T05:08:53;99436.75;;;9.42;59.85
50636;BME280;36598;46.054;11.130;2023-02-22T05:11:19;99441.47;;;9.52;59.51
50636;BME280;36598;46.054;11.130;2023-02-22T05:13:44;99441.97;;;9.25;59.94
50636;BME280;36598;46.054;11.130;2023-02-22T05:16:09;99438.00;;;9.30;60.11
50636;BME280;36598;46.054;11.130;2023-02-22T05:18:35;99434.06;;;9.24;60.32
50636;BME280;36598;46.054;11.130;2023-02-22T05:21:00;99443.91;;;9.32;60.25
50636;BME280;36598;46.054;11.130;2023-02-22T05:23:25;99438.25;;;9.61;58.94
50636;BME280;36598;46.054;11.130;2023-02-22T05:25:51;99445.84;;;9.39;59.99
50636;BME280;36598;46.054;11.130;2023-02-22T05:28:16;99441.88;;;9.47;59.41
50636;BME280;36598;46.054;11.130;2023-02-22T05:30:41;99439.41;;;9.63;59.52
50636;BME280;36598;46.054;11.130;2023-02-22T05:33:07;99434.41;;;9.44;59.36
50636;BME280;36598;46.054;11.130;2023-02-22T05:35:32;99440.00;;;9.26;59.45
50636;BME280;36598;46.054;11.130;2023-02-22T05:37:58;99438.28;;;9.50;59.66
50636;BME280;36598;46.054;11.130;2023-02-22T05:40:26;99444.38;;;9.13;60.37
50636;BME280;36598;46.054;11.130;2023-02-22T05:42:52;99444.75;;;9.11;60.96
50636;BME280;36598;46.054;11.130;2023-02-22T05:45:18;99440.41;;;9.14;60.29
50636;BME280;36598;46.054;11.130;2023-02-22T05:47:44;99440.84;;;9.05;60.39
50636;BME280;36598;46.054;11.130;2023-02-22T05:50:09;99436.88;;;9.06;59.99
50636;BME280;36598;46.054;11.130;2023-02-22T05:52:35;99439.63;;;9.13;59.62
50636;BME280;36598;46.054;11.130;2023-02-22T05:55:00;99431.03;;;8.79;60.31
50636;BME280;36598;46.054;11.130;2023-02-22T05:57:26;99437.31;;;8.94;60.61
50636;BME280;36598;46.054;11.130;2023-02-22T05:59:51;99433.34;;;9.09;60.05
50636;BME280;36598;46.054;11.130;2023-02-22T06:02:16;99437.31;;;8.90;60.04
50636;BME280;36598;46.054;11.130;2023-02-22T06:04:45;99446.00;;;8.96;60.59
50636;BME280;36598;46.054;11.130;2023-02-22T06:07:11;99436.88;;;9.06;60.13
50636;BME280;36598;46.054;11.130;2023-02-22T06:09:36;99439.31;;;8.68;60.96
50636;BME280;36598;46.054;11.130;2023-02-22T06:12:01;99439.66;;;9.02;59.94
50636;BME280;36598;46.054;11.130;2023-02-22T06:14:27;99440.00;;;9.15;59.61
50636;BME280;36598;46.054;11.130;2023-02-22T06:16:53;99437.25;;;9.12;60.11
50636;BME280;36598;46.054;11.130;2023-02-22T06:19:19;99446.75;;;9.03;60.22
50636;BME280;36598;46.054;11.130;2023-02-22T06:21:48;99444.00;;;9.00;59.98
50636;BME280;36598;46.054;11.130;2023-02-22T06:24:14;99450.31;;;8.90;60.42
50636;BME280;36598;46.054;11.130;2023-02-22T06:26:39;99448.66;;;9.24;59.41
50636;BME280;36598;46.054;11.130;2023-02-22T06:29:04;99447.56;;;8.90;59.27
50636;BME280;36598;46.054;11.130;2023-02-22T06:31:29;99445.63;;;8.80;60.27
50636;BME280;36598;46.054;11.130;2023-02-22T06:33:55;99451.50;;;8.89;60.22
50636;BME280;36598;46.054;11.130;2023-02-22T06:36:21;99459.34;;;9.19;58.61
50636;BME280;36598;46.054;11.130;2023-02-22T06:38:46;99463.69;;;9.06;59.79
50636;BME280;36598;46.054;11.130;2023-02-22T06:41:11;99470.41;;;8.97;59.96
50636;BME280;36598;46.054;11.130;2023-02-22T06:43:36;99475.47;;;9.24;59.22
50636;BME280;36598;46.054;11.130;2023-02-22T06:46:02;99469.25;;;8.84;60.44
50636;BME280;36598;46.054;11.130;2023-02-22T06:48:27;99478.28;;;9.10;59.13
50636;BME280;36598;46.054;11.130;2023-02-22T06:50:52;99483.75;;;9.24;59.20
50636;BME280;36598;46.054;11.130;2023-02-22T06:53:17;99483.34;;;9.40;58.35
50636;BME280;36598;46.054;11.130;2023-02-22T06:55:43;99488.50;;;9.16;58.54
50636;BME280;36598;46.054;11.130;2023-02-22T06:58:08;99492.03;;;9.24;58.21
50636;BME280;36598;46.054;11.130;2023-02-22T07:00:33;99492.81;;;9.35;57.23
50636;BME280;36598;46.054;11.130;2023-02-22T07:02:59;99487.72;;;9.30;57.41
50636;BME280;36598;46.054;11.130;2023-02-22T07:05:24;99489.22;;;9.42;57.58
50636;BME280;36598;46.054;11.130;2023-02-22T07:07:51;99485.03;;;8.76;58.49
50636;BME280;36598;46.054;11.130;2023-02-22T07:10:19;99489.69;;;9.30;57.30
50636;BME280;36598;46.054;11.130;2023-02-22T07:12:46;99491.97;;;9.45;56.87
50636;BME280;36598;46.054;11.130;2023-02-22T07:15:13;99494.44;;;9.08;57.48
50636;BME280;36598;46.054;11.130;2023-02-22T07:17:38;99497.56;;;9.20;56.94
50636;BME280;36598;46.054;11.130;2023-02-22T07:20:05;99499.47;;;9.52;55.62
50636;BME280;36598;46.054;11.130;2023-02-22T07:22:31;99504.16;;;9.66;55.52
50636;BME280;36598;46.054;11.130;2023-02-22T07:24:56;99491.44;;;9.83;53.75
50636;BME280;36598;46.054;11.130;2023-02-22T07:27:21;99489.88;;;9.78;53.72
50636;BME280;36598;46.054;11.130;2023-02-22T07:29:47;99496.22;;;9.71;53.89
50636;BME280;36598;46.054;11.130;2023-02-22T07:32:12;99496.97;;;9.83;54.40
50636;BME280;36598;46.054;11.130;2023-02-22T07:34:37;99494.53;;;9.92;54.40
50636;BME280;36598;46.054;11.130;2023-02-22T07:37:02;99492.19;;;9.90;53.70
50636;BME280;36598;46.054;11.130;2023-02-22T07:39:28;99488.13;;;10.09;52.45
50636;BME280;36598;46.054;11.130;2023-02-22T07:41:53;99485.34;;;10.13;52.17
50636;BME280;36598;46.054;11.130;2023-02-22T07:44:18;99493.78;;;9.88;53.11
50636;BME280;36598;46.054;11.130;2023-02-22T07:46:47;99492.13;;;10.01;53.16
50636;BME280;36598;46.054;11.130;2023-02-22T07:49:13;99493.69;;;10.06;52.78
50636;BME280;36598;46.054;11.130;2023-02-22T07:51:38;99484.78;;;9.76;54.20
50636;BME280;36598;46.054;11.130;2023-02-22T07:54:03;99481.38;;;10.14;52.68
50636;BME280;36598;46.054;11.130;2023-02-22T07:56:28;99488.44;;;10.29;52.91
50636;BME280;36598;46.054;11.130;2023-02-22T07:58:54;99491.13;;;10.40;52.96
50636;BME280;36598;46.054;11.130;2023-02-22T08:01:19;99486.44;;;10.33;52.72
50636;BME280;36598;46.054;11.130;2023-02-22T08:03:44;99486.59;;;10.01;53.42
50636;BME280;36598;46.054;11.130;2023-02-22T08:06:11;99478.69;;;10.03;53.56
50636;BME280;36598;46.054;11.130;2023-02-22T08:08:37;99475.13;;;10.62;51.73
50636;BME280;36598;46.054;11.130;2023-02-22T08:11:02;99476.34;;;11.02;49.97
50636;BME280;36598;46.054;11.130;2023-02-22T08:13:27;99482.69;;;11.02;50.21
50636;BME280;36598;46.054;11.130;2023-02-22T08:15:53;99481.84;;;12.08;47.38
50636;BME280;36598;46.054;11.130;2023-02-22T08:18:18;99473.56;;;12.32;47.21
50636;BME280;36598;46.054;11.130;2023-02-22T08:20:45;99481.88;;;12.32;46.99
50636;BME280;36598;46.054;11.130;2023-02-22T08:23:11;99476.47;;;12.48;46.61
50636;BME280;36598;46.054;11.130;2023-02-22T08:25:37;99473.72;;;12.71;45.27
50636;BME280;36598;46.054;11.130;2023-02-22T08:28:06;99471.25;;;12.77;45.27
50636;BME280;36598;46.054;11.130;2023-02-22T08:30:32;99477.81;;;12.40;47.24
50636;BME280;36598;46.054;11.130;2023-02-22T08:32:59;99472.31;;;13.07;44.33
50636;BME280;36598;46.054;11.130;2023-02-22T08:35:26;99468.75;;;13.06;44.55
50636;BME280;36598;46.054;11.130;2023-02-22T08:37:53;99469.66;;;15.30;40.03
50636;BME280;36598;46.054;11.130;2023-02-22T08:40:22;99471.47;;;15.65;39.06
50636;BME280;36598;46.054;11.130;2023-02-22T08:42:48;99476.88;;;14.82;39.73
50636;BME280;36598;46.054;11.130;2023-02-22T08:45:13;99466.97;;;15.55;39.41
50636;BME280;36598;46.054;11.130;2023-02-22T08:47:39;99464.59;;;18.16;35.12
50636;BME280;36598;46.054;11.130;2023-02-22T08:50:05;99460.22;;;21.56;28.85
50636;BME280;36598;46.054;11.130;2023-02-22T08:52:31;99458.06;;;23.62;26.24
50636;BME280;36598;46.054;11.130;2023-02-22T08:54:56;99456.75;;;24.46;24.74
50636;BME280;36598;46.054;11.130;2023-02-22T08:57:21;99453.53;;;24.65;24.55
50636;BME280;36598;46.054;11.130;2023-02-22T08:59:47;99454.13;;;26.80;21.60
50636;BME280;36598;46.054;11.130;2023-02-22T09:02:13;99449.50;;;28.48;20.11
50636;BME280;36598;46.054;11.130;2023-02-22T09:04:39;99445.34;;;28.74;20.06
50636;BME280;36598;46.054;11.130;2023-02-22T09:07:04;99444.50;;;29.92;18.32
50636;BME280;36598;46.054;11.130;2023-02-22T09:09:30;99447.09;;;27.92;19.79
50636;BME280;36598;46.054;11.130;2023-02-22T09:11:55;99442.94;;;30.95;16.85
50636;BME280;36598;46.054;11.130;2023-02-22T09:14:20;99436.78;;;28.74;18.55
50636;BME280;36598;46.054;11.130;2023-02-22T09:16:45;99431.81;;;30.06;17.32
50636;BME280;36598;46.054;11.130;2023-02-22T09:19:11;99428.84;;;29.66;17.33
50636;BME280;36598;46.054;11.130;2023-02-22T09:21:36;99429.59;;;29.86;17.68
50636;BME280;36598;46.054;11.130;2023-02-22T09:24:01;99430.59;;;31.13;16.18
50636;BME280;36598;46.054;11.130;2023-02-22T09:26:32;99417.66;;;30.86;16.78
50636;BME280;36598;46.054;11.130;2023-02-22T09:28:58;99415.38;;;30.58;16.88
50636;BME280;36598;46.054;11.130;2023-02-22T09:31:23;99407.25;;;30.75;16.67
50636;BME280;36598;46.054;11.130;2023-02-22T09:33:48;99407.91;;;30.09;17.60
50636;BME280;36598;46.054;11.130;2023-02-22T09:36:13;99395.53;;;29.75;17.48
50636;BME280;36598;46.054;11.130;2023-02-22T09:38:39;99396.31;;;28.81;18.47
50636;BME280;36598;46.054;11.130;2023-02-22T09:41:15;99387.66;;;30.66;16.82
50636;BME280;36598;46.054;11.130;2023-02-22T09:51:47;99368.31;;;34.07;13.95
50636;BME280;36598;46.054;11.130;2023-02-22T09:56:46;99352.16;;;33.28;14.52
50636;BME280;36598;46.054;11.130;2023-02-22T09:59:14;99347.97;;;34.51;13.50
50636;BME280;36598;46.054;11.130;2023-02-22T10:01:46;99353.97;;;34.86;13.22
50636;BME280;36598;46.054;11.130;2023-02-22T10:04:15;99346.66;;;34.29;14.25
50636;BME280;36598;46.054;11.130;2023-02-22T10:06:55;99338.09;;;34.06;13.94
50636;BME280;36598;46.054;11.130;2023-02-22T10:09:26;99330.78;;;34.92;13.62
50636;BME280;36598;46.054;11.130;2023-02-22T10:12:01;99330.09;;;35.74;12.86
50636;BME280;36598;46.054;11.130;2023-02-22T10:17:03;99310.47;;;36.05;12.88
50636;BME280;36598;46.054;11.130;2023-02-22T10:19:39;99308.94;;;35.79;13.00
50636;BME280;36598;46.054;11.130;2023-02-22T10:25:11;99302.84;;;36.17;12.79
50636;BME280;36598;46.054;11.130;2023-02-22T10:27:41;99303.44;;;33.66;14.46
50636;BME280;36598;46.054;11.130;2023-02-22T10:32:44;99297.34;;;35.11;13.29
50636;BME280;36598;46.054;11.130;2023-02-22T10:37:45;99289.09;;;35.41;13.04
50636;BME280;36598;46.054;11.130;2023-02-22T10:40:14;99281.47;;;35.35;12.98
50636;BME280;36598;46.054;11.130;2023-02-22T10:42:42;99276.47;;;35.86;13.03
50636;BME280;36598;46.054;11.130;2023-02-22T10:45:24;99279.16;;;33.52;14.67
50636;BME280;36598;46.054;11.130;2023-02-22T10:47:52;99270.00;;;36.55;12.49
50636;BME280;36598;46.054;11.130;2023-02-22T10:50:19;99274.63;;;34.50;14.18
50636;BME280;36598;46.054;11.130;2023-02-22T10:52:45;99269.41;;;34.97;13.87
50636;BME280;36598;46.054;11.130;2023-02-22T10:55:12;99252.75;;;36.65;12.51
50636;BME280;36598;46.054;11.130;2023-02-22T10:57:37;99245.09;;;36.50;12.40
50636;BME280;36598;46.054;11.130;2023-02-22T11:00:37;99242.06;;;35.88;13.10
50636;BME280;36598;46.054;11.130;2023-02-22T11:02:56;99238.53;;;34.64;14.26
50636;BME280;36598;46.054;11.130;2023-02-22T11:05:26;99233.34;;;34.23;14.43
50636;BME280;36598;46.054;11.130;2023-02-22T11:07:59;99228.28;;;33.75;14.46
50636;BME280;36598;46.054;11.130;2023-02-22T11:10:38;99216.66;;;35.09;13.74
50636;BME280;36598;46.054;11.130;2023-02-22T11:13:15;99212.78;;;33.71;14.73
50636;BME280;36598;46.054;11.130;2023-02-22T11:15:41;99209.47;;;34.60;14.04
50636;BME280;36598;46.054;11.130;2023-02-22T11:18:15;99205.50;;;33.39;14.95
50636;BME280;36598;46.054;11.130;2023-02-22T11:20:46;99197.22;;;30.61;16.83
50636;BME280;36598;46.054;11.130;2023-02-22T11:23:11;99206.22;;;27.87;19.81
50636;BME280;36598;46.054;11.130;2023-02-22T11:25:38;99196.22;;;29.58;18.07
50636;BME280;36598;46.054;11.130;2023-02-22T11:28:08;99181.88;;;31.76;16.74
50636;BME280;36598;46.054;11.130;2023-02-22T11:30:34;99172.53;;;31.47;16.56
50636;BME280;36598;46.054;11.130;2023-02-22T11:35:56;99163.66;;;31.58;16.80
50636;BME280;36598;46.054;11.130;2023-02-22T11:38:29;99149.44;;;32.10;16.89
50636;BME280;36598;46.054;11.130;2023-02-22T11:41:14;99146.06;;;31.83;17.68
50636;BME280;36598;46.054;11.130;2023-02-22T11:43:40;99147.44;;;33.15;15.71
50636;BME280;36598;46.054;11.130;2023-02-22T11:46:08;99146.97;;;26.57;21.06
50636;BME280;36598;46.054;11.130;2023-02-22T11:48:36;99147.84;;;25.88;22.48
50636;BME280;36598;46.054;11.130;2023-02-22T11:56:20;99129.69;;;23.24;25.58
50636;BME280;36598;46.054;11.130;2023-02-22T12:01:40;99115.56;;;22.55;27.57
50636;BME280;36598;46.054;11.130;2023-02-22T12:04:14;99114.81;;;20.62;29.81
50636;BME280;36598;46.054;11.130;2023-02-22T12:09:21;99097.28;;;23.51;27.17
50636;BME280;36598;46.054;11.130;2023-02-22T12:11:54;99097.53;;;20.84;30.25
50636;BME280;36598;46.054;11.130;2023-02-22T12:14:25;99094.84;;;19.62;31.34
50636;BME280;36598;46.054;11.130;2023-02-22T12:19:36;99089.13;;;20.24;31.04
50636;BME280;36598;46.054;11.130;2023-02-22T12:22:07;99089.53;;;20.62;31.02
50636;BME280;36598;46.054;11.130;2023-02-22T12:24:45;99082.78;;;20.89;30.56
50636;BME280;36598;46.054;11.130;2023-02-22T12:27:25;99088.63;;;20.11;32.10
50636;BME280;36598;46.054;11.130;2023-02-22T12:30:03;99091.09;;;19.32;32.66
50636;BME280;36598;46.054;11.130;2023-02-22T12:32:31;99088.44;;;19.04;32.76
50636;BME280;36598;46.054;11.130;2023-02-22T12:34:59;99076.13;;;17.98;35.28
50636;BME280;36598;46.054;11.130;2023-02-22T12:37:33;99074.38;;;19.13;33.78
50636;BME280;36598;46.054;11.130;2023-02-22T12:40:05;99061.00;;;19.56;33.18
50636;BME280;36598;46.054;11.130;2023-02-22T12:42:38;99062.50;;;19.66;32.86
50636;BME280;36598;46.054;11.130;2023-02-22T12:45:12;99068.50;;;18.17;34.80
50636;BME280;36598;46.054;11.130;2023-02-22T12:47:54;99063.66;;;18.27;34.67
50636;BME280;36598;46.054;11.130;2023-02-22T12:50:26;99059.91;;;18.82;34.07
50636;BME280;36598;46.054;11.130;2023-02-22T12:53:01;99053.59;;;17.93;35.54
50636;BME280;36598;46.054;11.130;2023-02-22T12:55:32;99051.34;;;18.34;35.17
50636;BME280;36598;46.054;11.130;2023-02-22T13:00:50;99048.00;;;17.84;36.02
50636;BME280;36598;46.054;11.130;2023-02-22T13:05:44;99052.44;;;17.17;36.93
